Flight Track Log - Related Links

Times and Time Zones

All times are in EDT time to prevent confusion due to time zone crossing. See the AFL150 flight status page for this flight to view local times or setup timezone preferences in your user account.

Time Position Orientation Groundspeed Altitude Reporting Facility
EDT Latitude Longitude Course Direction KTS MPH feet Rate Location/Type
Tue 06:27:00 AM 56.2291 36.6227 307° West  Level Estimated
Tue 06:28:00 AM 56.3034 36.4393 306° West  Level Estimated
Tue 06:29:00 AM 56.3774 36.2552 306° West  Level Estimated
Tue 06:30:00 AM 56.4511 36.0703 306° West  Level Estimated
Tue 06:31:00 AM 56.5245 35.8848 306° West  Level Estimated
Tue 06:32:00 AM 56.5977 35.6985 306° West  Level Estimated
Tue 06:33:00 AM 56.6706 35.5115 305° West  Level Estimated
Tue 06:34:00 AM 56.7432 35.3237 305° West  Level Estimated
Tue 06:35:00 AM 56.8155 35.1353 305° West  Level Estimated
Tue 06:36:00 AM 56.8876 34.9461 305° West  Level Estimated
Tue 06:37:00 AM 56.9593 34.7562 305° West  Level Estimated
Tue 06:38:00 AM 57.0308 34.5655 305° West  Level Estimated
Tue 06:39:00 AM 57.1019 34.3741 304° West  Level Estimated
Tue 06:40:00 AM 57.1728 34.1820 304° West  Level Estimated
Tue 06:41:00 AM 57.2434 33.9892 304° West  Level Estimated
Tue 06:42:00 AM 57.3137 33.7956 304° West  Level Estimated
Tue 06:43:00 AM 57.3837 33.6013 304° West  Level Estimated
Tue 06:44:00 AM 57.4533 33.4062 304° West  Level Estimated
Tue 06:45:00 AM 57.5227 33.2104 303° West  Level Estimated
Tue 06:46:00 AM 57.5918 33.0138 303° West  Level Estimated
Tue 06:47:00 AM 57.6606 32.8165 303° West  Level Estimated
Tue 06:48:00 AM 57.7290 32.6185 303° West  Level Estimated
Tue 06:49:00 AM 57.7972 32.4197 303° West  Level Estimated
Tue 06:50:00 AM 57.8650 32.2201 303° West  Level Estimated
Tue 06:51:00 AM 57.9326 32.0198 302° West  Level Estimated
Tue 06:51:37 AM 56.5153 31.5682 278° West 463 533 34,000  Level FlightAware ADS-B
Tue 06:52:39 AM 56.5312 31.3675 279° West 463 533 34,000  Level FlightAware ADS-B
Tue 06:53:39 AM 56.5666 31.1313 291° West 465 535 34,000  Level FlightAware ADS-B
Tue 06:54:32 AM 56.6254 30.9243 304° West 467 537 34,000  Level FlightAware ADS-B
Tue 06:55:47 AM 56.7250 30.6962 306° West 467 537 34,000  Level FlightAware ADS-B
Tue 06:56:47 AM 56.7970 30.5065 305° West 467 537 34,000  Level FlightAware ADS-B
Tue 06:57:35 AM 56.8477 30.3714 304° West 469 540 34,000  Level FlightAware ADS-B
Tue 06:58:47 AM 56.9447 30.1076 304° West 471 542 34,000  Level FlightAware ADS-B
Tue 06:59:46 AM 57.0135 29.9186 304° West 469 540 34,000  Level FlightAware ADS-B
Tue 07:00:45 AM 57.0844 29.7219 304° West 468 539 34,000  Level FlightAware ADS-B
Tue 07:01:47 AM 57.1576 29.5178 303° West 467 537 34,000  Level FlightAware ADS-B
Tue 07:02:47 AM 57.2295 29.3153 303° West 464 534 34,000  Level FlightAware ADS-B
Tue 07:03:47 AM 57.2978 29.1215 303° West 459 528 34,000  Level FlightAware ADS-B
Tue 07:04:47 AM 57.3666 28.9251 303° West 457 526 34,000  Level FlightAware ADS-B
Tue 07:05:47 AM 57.4347 28.7287 303° West 457 526 34,000  Level FlightAware ADS-B
Tue 07:06:47 AM 57.5044 28.5260 303° West 458 527 34,000  Level FlightAware ADS-B
Tue 07:07:47 AM 57.5720 28.3280 302° West 458 527 34,000  Level FlightAware ADS-B
Tue 07:08:55 AM 57.6480 28.1032 302° West 456 525 34,000  Level FlightAware ADS-B
Tue 07:09:30 AM 57.6649 28.0531 302° West 454 522 34,000  Level FlightAware ADS-B
Tue 07:10:16 AM 57.7229 27.8801 302° West 456 525 34,000  Level FlightAware ADS-B
Tue 07:10:55 AM 57.7805 27.7066 302° West 458 527 34,000  Level FlightAware ADS-B
Tue 07:11:55 AM 57.8453 27.4930 290° West 460 529 34,000  Level FlightAware ADS-B
Tue 07:12:55 AM 57.8894 27.2705 291° West 459 528 34,000  Level FlightAware ADS-B
Tue 07:14:07 AM 57.9430 27.0036 291° West 460 529 34,000  Level FlightAware ADS-B
Tue 07:15:19 AM 57.9968 26.7327 290° West 462 532 34,000  Level FlightAware ADS-B
Tue 07:16:18 AM 58.0408 26.5088 290° West 461 531 34,000  Level FlightAware ADS-B
Tue 07:17:19 AM 58.0854 26.2789 290° West 461 531 34,000  Level FlightAware ADS-B
Tue 07:18:19 AM 58.1282 26.0553 290° West 460 529 34,000  Level FlightAware ADS-B
Tue 07:19:19 AM 58.1711 25.8288 290° West 461 531 34,000  Level FlightAware ADS-B
Tue 07:20:19 AM 58.2141 25.5994 290° West 459 528 34,000  Level FlightAware ADS-B
Tue 07:21:19 AM 58.2562 25.3718 289° West 459 528 34,000  Level FlightAware ADS-B
Tue 07:22:15 AM 58.2948 25.1608 289° West 460 529 34,000  Level FlightAware ADS-B
Tue 07:22:47 AM 58.3165 25.0410 289° West 462 532 34,000  Level FlightAware ADS-B
Tue 07:23:17 AM 58.3308 24.9619 289° West 462 532 34,000  Level FlightAware ADS-B
Tue 07:23:57 AM 58.3648 24.7715 289° West 460 529 34,000  Level FlightAware ADS-B
Tue 07:24:28 AM 58.3852 24.6573 289° West 460 529 34,000  Level FlightAware ADS-B
Tue 07:25:02 AM 58.4070 24.5338 289° West 460 529 34,000  Level FlightAware ADS-B
Tue 07:27:07 AM 58.4839 24.0359 286° West 460 529 34,000  Level FlightAware ADS-B
Tue 07:27:59 AM 58.5135 23.8364 286° West 460 529 34,000  Level FlightAware ADS-B
Tue 07:29:42 AM 58.5729 23.4315 285° West 463 533 34,000  Level FlightAware ADS-B
Tue 07:31:49 AM 58.6439 22.9320 285° West 462 532 34,000  Level FlightAware ADS-B
Tue 07:32:28 AM 58.6647 22.7830 285° West 462 532 34,000  Level FlightAware ADS-B
Tue 07:32:59 AM 58.6821 22.6565 285° West 462 532 34,000  Level FlightAware ADS-B
Tue 07:33:38 AM 58.7038 22.4984 285° West 462 532 34,000  Level FlightAware ADS-B
Tue 07:34:17 AM 58.7249 22.3430 285° West 462 532 34,000  Level FlightAware ADS-B
Tue 07:34:58 AM 58.7462 22.1838 284° West 462 532 34,000  Level FlightAware ADS-B
Tue 07:35:55 AM 58.7761 21.9576 284° West 461 531 34,000  Level FlightAware ADS-B
Tue 07:36:58 AM 58.8082 21.7106 284° West 462 532 34,000  Level FlightAware ADS-B
Tue 07:38:03 AM 58.8418 21.4482 284° West 463 533 34,000  Level FlightAware ADS-B
Tue 07:38:42 AM 58.8621 21.2888 284° West 463 533 34,000 77 Level FlightAware ADS-B
Tue 07:41:57 AM 58.9884 20.5271 287° West 464 534 34,300 198 Climbing FlightAware ADS-B
Tue 07:42:00 AM 59.0257 20.5474 293° West  Level Estimated
Tue 07:42:45 AM 59.0173 20.3481 287° West 466 536 34,800  Level FlightAware ADS-B
Tue 07:43:25 AM 59.0439 20.1806 287° West 467 537 35,300 835 Climbing FlightAware ADS-B
Tue 07:44:04 AM 59.0690 20.0233 287° West 464 534 35,900 525 Climbing FlightAware ADS-B
Tue 07:44:45 AM 59.0949 19.8577 287° West 464 534 36,000 75 Climbing FlightAware ADS-B
Tue 07:45:24 AM 59.1189 19.7026 287° West 463 533 36,000  Level FlightAware ADS-B
Tue 07:46:04 AM 59.1426 19.5494 287° West 462 532 36,000  Level FlightAware ADS-B
Tue 07:46:45 AM 59.1678 19.3832 286° West 462 532 36,000  Level FlightAware ADS-B
Tue 07:47:25 AM 59.1914 19.2270 286° West 462 532 36,000  Level FlightAware ADS-B
Tue 07:48:05 AM 59.2160 19.0623 286° West 461 531 36,000  Level FlightAware ADS-B
Tue 07:49:05 AM 59.2516 18.8210 286° West 463 533 36,000  Level FlightAware ADS-B
Tue 07:49:45 AM 59.2746 18.6627 286° West 465 535 36,000  Level FlightAware ADS-B
Tue 07:50:24 AM 59.2975 18.5042 286° West 465 535 36,000  Level FlightAware ADS-B
Tue 07:51:05 AM 59.3209 18.3410 286° West 467 537 36,000  Level FlightAware ADS-B
Tue 07:51:46 AM 59.3445 18.1740 285° West 468 539 36,000  Level FlightAware ADS-B
Tue 07:52:25 AM 59.3664 18.0177 285° West 467 537 36,000  Level FlightAware ADS-B
Tue 07:53:06 AM 59.3891 17.8545 285° West 466 536 36,000  Level FlightAware ADS-B
Tue 07:53:46 AM 59.4122 17.6860 285° West 467 537 36,000  Level FlightAware ADS-B
Tue 07:54:25 AM 59.4341 17.5243 285° West 466 536 36,000  Level FlightAware ADS-B
Tue 07:55:05 AM 59.4537 17.3790 285° West 466 536 36,000  Level FlightAware ADS-B
Tue 07:55:44 AM 59.4774 17.2004 285° West 466 536 36,000  Level FlightAware ADS-B
Tue 07:56:21 AM 59.4931 17.0816 284° West 467 537 36,000  Level FlightAware ADS-B
Tue 07:57:06 AM 59.5210 16.8672 284° West 467 537 36,000  Level FlightAware ADS-B
Tue 07:57:47 AM 59.5419 16.7056 284° West 469 540 36,000  Level FlightAware ADS-B
Tue 07:58:26 AM 59.5609 16.5562 284° West 471 542 36,000  Level FlightAware ADS-B
Tue 07:59:06 AM 59.5842 16.3702 284° West 471 542 36,000  Level FlightAware ADS-B
Tue 07:59:44 AM 59.6012 16.2332 284° West 472 543 36,000  Level FlightAware ADS-B
Tue 08:00:51 AM 59.6385 15.9296 283° West 474 545 36,000 Level FlightAware ADS-B
Tue 08:03:00 AM 59.7255 15.4211 289° West  Level Estimated
Tue 08:04:00 AM 59.7653 15.1837 289° West  Level Estimated
Tue 08:05:00 AM 59.8046 14.9458 288° West  Level Estimated
Tue 08:06:00 AM 59.8436 14.7073 288° West  Level Estimated
Tue 08:07:00 AM 59.8820 14.4682 288° West  Level Estimated
Tue 08:08:00 AM 59.9201 14.2285 288° West  Level Estimated
Tue 08:09:00 AM 59.9577 13.9884 287° West  Level Estimated
Tue 08:10:00 AM 59.9949 13.7477 287° West  Level Estimated
Tue 08:11:00 AM 60.0317 13.5064 287° West  Level Estimated
Tue 08:12:00 AM 60.0680 13.2646 287° West  Level Estimated
Tue 08:13:00 AM 60.1039 13.0223 287° West  Level Estimated
Tue 08:14:00 AM 60.1393 12.7794 286° West  Level Estimated
Tue 08:15:00 AM 60.1743 12.5361 286° West  Level Estimated
Tue 08:16:00 AM 60.2088 12.2922 286° West  Level Estimated
Tue 08:17:00 AM 60.2429 12.0478 286° West  Level Estimated
Tue 08:18:00 AM 60.2765 11.8029 286° West  Level Estimated
Tue 08:19:00 AM 60.3097 11.5575 285° West  Level Estimated
Tue 08:20:00 AM 60.3425 11.3116 285° West  Level Estimated
Tue 08:21:00 AM 60.3747 11.0652 285° West  Level Estimated
Tue 08:22:00 AM 60.4066 10.8183 285° West  Level Estimated
Tue 08:23:00 AM 60.4379 10.5710 285° West  Level Estimated
Tue 08:24:00 AM 60.4688 10.3231 284° West  Level Estimated
Tue 08:25:00 AM 60.4993 10.0749 284° West  Level Estimated
Tue 08:26:00 AM 60.5293 9.8261 284° West  Level Estimated
Tue 08:27:00 AM 60.5588 9.5769 284° West  Level Estimated
Tue 08:28:00 AM 60.5878 9.3272 283° West  Level Estimated
Tue 08:29:00 AM 60.6164 9.0771 283° West  Level Estimated
Tue 08:30:00 AM 60.6445 8.8265 283° West  Level Estimated
Tue 08:31:00 AM 60.6722 8.5756 283° West  Level Estimated
Tue 08:32:00 AM 60.6994 8.3241 283° West  Level Estimated
Tue 08:33:00 AM 60.7261 8.0723 282° West  Level Estimated
Tue 08:34:00 AM 60.7523 7.8200 282° West  Level Estimated
Tue 08:35:00 AM 60.7781 7.5674 282° West  Level Estimated
Tue 08:36:00 AM 60.8033 7.3143 282° West  Level Estimated
Tue 08:37:00 AM 60.8282 7.0609 281° West  Level Estimated
Tue 08:38:00 AM 60.8525 6.8070 281° West  Level Estimated
Tue 08:39:00 AM 60.8763 6.5528 281° West  Level Estimated
Tue 08:40:00 AM 60.8997 6.2982 281° West  Level Estimated
Tue 08:41:00 AM 60.9226 6.0432 281° West  Level Estimated
Tue 08:42:00 AM 60.9450 5.7878 280° West  Level Estimated
Tue 08:43:00 AM 60.9669 5.5321 280° West  Level Estimated
Tue 08:44:00 AM 60.9884 5.2761 280° West  Level Estimated
Tue 08:45:00 AM 61.0093 5.0197 280° West  Level Estimated
Tue 08:46:00 AM 61.0298 4.7630 279° West  Level Estimated
Tue 08:47:00 AM 61.0498 4.5059 279° West  Level Estimated
Tue 08:48:00 AM 61.0693 4.2485 279° West  Level Estimated
Tue 08:49:00 AM 61.0883 3.9909 279° West  Level Estimated
Tue 08:50:00 AM 61.1068 3.7329 279° West  Level Estimated
Tue 08:51:00 AM 61.1248 3.4746 278° West  Level Estimated
Tue 08:52:00 AM 61.1423 3.2160 278° West  Level Estimated
Tue 08:53:00 AM 61.1593 2.9571 278° West  Level Estimated
Tue 08:54:00 AM 61.1759 2.6980 278° West  Level Estimated
Tue 08:55:00 AM 61.1919 2.4386 277° West  Level Estimated
Tue 08:56:00 AM 61.2074 2.1789 277° West  Level Estimated
Tue 08:57:00 AM 61.2225 1.9190 277° West  Level Estimated
Tue 08:58:00 AM 61.2370 1.6589 277° West  Level Estimated
Tue 08:59:00 AM 61.2511 1.3985 277° West  Level Estimated
Tue 09:00:00 AM 61.2646 1.1378 276° West  Level Estimated
Tue 09:01:00 AM 61.2777 0.8770 276° West  Level Estimated
Tue 09:02:00 AM 61.2902 0.6159 276° West  Level Estimated
Tue 09:03:00 AM 61.3023 0.3547 276° West  Level Estimated
Tue 09:04:00 AM 61.3138 0.0932 275° West  Level Estimated
Tue 09:05:00 AM 61.3249 -0.1685 275° West  Level Estimated
Tue 09:06:00 AM 61.3354 -0.4303 275° West  Level Estimated
Tue 09:07:00 AM 61.3454 -0.6923 275° West  Level Estimated
Tue 09:08:00 AM 61.3550 -0.9545 274° West  Level Estimated
Tue 09:09:00 AM 61.3640 -1.2168 274° West  Level Estimated
Tue 09:10:00 AM 61.3725 -1.4792 274° West  Level Estimated
Tue 09:11:00 AM 61.3805 -1.7419 274° West  Level Estimated
Tue 09:12:00 AM 61.3880 -2.0046 274° West  Level Estimated
Tue 09:13:00 AM 61.3950 -2.2675 273° West  Level Estimated
Tue 09:14:00 AM 61.4015 -2.5304 273° West  Level Estimated
Tue 09:15:00 AM 61.4075 -2.7935 273° West  Level Estimated
Tue 09:16:00 AM 61.4130 -3.0567 273° West  Level Estimated
Tue 09:17:00 AM 61.4179 -3.3200 272° West  Level Estimated
Tue 09:18:00 AM 61.4224 -3.5833 272° West  Level Estimated
Tue 09:19:00 AM 61.4264 -3.8467 272° West  Level Estimated
Tue 09:20:00 AM 61.4298 -4.1102 272° West  Level Estimated
Tue 09:21:00 AM 61.4327 -4.3737 271° West  Level Estimated
Tue 09:22:00 AM 61.4352 -4.6373 271° West  Level Estimated
Tue 09:23:00 AM 61.4371 -4.9009 271° West  Level Estimated
Tue 09:24:00 AM 61.4385 -5.1645 271° West  Level Estimated
Tue 09:25:00 AM 61.4394 -5.4282 271° West  Level Estimated
Tue 09:26:00 AM 61.4398 -5.6919 270° West  Level Estimated
Tue 09:27:00 AM 61.4397 -5.9556 270° West  Level Estimated
Tue 09:28:00 AM 61.4390 -6.2192 270° West  Level Estimated
Tue 09:29:00 AM 61.4379 -6.4829 270° West  Level Estimated
Tue 09:30:00 AM 61.4362 -6.7465 269° West  Level Estimated
Tue 09:31:00 AM 61.4341 -7.0101 269° West  Level Estimated
Tue 09:32:00 AM 61.4314 -7.2737 269° West  Level Estimated
Tue 09:33:00 AM 61.4282 -7.5372 269° West  Level Estimated
Tue 09:34:00 AM 61.4245 -7.8006 268° West  Level Estimated
Tue 09:35:00 AM 61.4203 -8.0640 268° West  Level Estimated
Tue 09:36:00 AM 61.4156 -8.3273 268° West  Level Estimated
Tue 09:37:00 AM 61.4104 -8.5905 268° West  Level Estimated
Tue 09:38:00 AM 61.4047 -8.8537 268° West  Level Estimated
Tue 09:39:00 AM 61.3985 -9.1167 267° West  Level Estimated
Tue 09:40:00 AM 61.3917 -9.3796 267° West  Level Estimated
Tue 09:41:00 AM 61.3845 -9.6424 267° West  Level Estimated
Tue 09:42:00 AM 61.3768 -9.9051 267° West  Level Estimated
Tue 09:43:00 AM 61.3685 -10.1676 266° West  Level Estimated
Tue 09:44:00 AM 61.3597 -10.4300 266° West  Level Estimated
Tue 09:45:00 AM 61.3505 -10.6923 266° West  Level Estimated
Tue 09:46:00 AM 61.3407 -10.9544 266° West  Level Estimated
Tue 09:47:00 AM 61.3304 -11.2163 265° West  Level Estimated
Tue 09:48:00 AM 61.3196 -11.4780 265° West  Level Estimated
Tue 09:49:00 AM 61.3084 -11.7396 265° West  Level Estimated
Tue 09:50:00 AM 61.2966 -12.0010 265° West  Level Estimated
Tue 09:51:00 AM 61.2843 -12.2621 265° West  Level Estimated
Tue 09:52:00 AM 61.2715 -12.5231 264° West  Level Estimated
Tue 09:53:00 AM 61.2582 -12.7838 264° West  Level Estimated
Tue 09:54:00 AM 61.2444 -13.0444 264° West  Level Estimated
Tue 09:55:00 AM 61.2301 -13.3047 264° West  Level Estimated
Tue 09:56:00 AM 61.2154 -13.5647 263° West  Level Estimated
Tue 09:57:00 AM 61.2001 -13.8245 263° West  Level Estimated
Tue 09:58:00 AM 61.1843 -14.0841 263° West  Level Estimated
Tue 09:59:00 AM 61.1680 -14.3433 263° West  Level Estimated
Tue 10:00:00 AM 61.1513 -14.6023 262° West  Level Estimated
Tue 10:01:00 AM 61.1340 -14.8611 262° West  Level Estimated
Tue 10:02:00 AM 61.1162 -15.1195 262° West  Level Estimated
Tue 10:03:00 AM 61.0980 -15.3777 262° West  Level Estimated
Tue 10:04:00 AM 61.0792 -15.6355 262° West  Level Estimated
Tue 10:05:00 AM 61.0600 -15.8930 261° West  Level Estimated
Tue 10:06:00 AM 61.0403 -16.1502 261° West  Level Estimated
Tue 10:07:00 AM 61.0201 -16.4072 261° West  Level Estimated
Tue 10:08:00 AM 60.9994 -16.6637 261° West  Level Estimated
Tue 10:09:00 AM 60.9782 -16.9199 260° West  Level Estimated
Tue 10:10:00 AM 60.9565 -17.1758 260° West  Level Estimated
Tue 10:11:00 AM 60.9344 -17.4314 260° West  Level Estimated
Tue 10:12:00 AM 60.9117 -17.6865 260° West  Level Estimated
Tue 10:13:00 AM 60.8886 -17.9413 260° West  Level Estimated
Tue 10:14:00 AM 60.8650 -18.1958 259° West  Level Estimated
Tue 10:15:00 AM 60.8409 -18.4498 259° West  Level Estimated
Tue 10:16:00 AM 60.8164 -18.7035 259° West  Level Estimated
Tue 10:17:00 AM 60.7913 -18.9568 259° West  Level Estimated
Tue 10:18:00 AM 60.7658 -19.2096 258° West  Level Estimated
Tue 10:19:00 AM 60.7398 -19.4621 258° West  Level Estimated
Tue 10:20:00 AM 60.7134 -19.7141 258° West  Level Estimated
Tue 10:21:00 AM 60.6864 -19.9658 258° West  Level Estimated
Tue 10:22:00 AM 60.6590 -20.2170 258° West  Level Estimated
Tue 10:23:00 AM 60.6312 -20.4678 257° West  Level Estimated
Tue 10:24:00 AM 60.6028 -20.7181 257° West  Level Estimated
Tue 10:25:00 AM 60.5740 -20.9680 257° West  Level Estimated
Tue 10:26:00 AM 60.5447 -21.2175 257° West  Level Estimated
Tue 10:27:00 AM 60.5150 -21.4665 256° West  Level Estimated
Tue 10:28:00 AM 60.4848 -21.7150 256° West  Level Estimated
Tue 10:29:00 AM 60.4541 -21.9631 256° West  Level Estimated
Tue 10:30:00 AM 60.4230 -22.2107 256° West  Level Estimated
Tue 10:31:00 AM 60.3914 -22.4578 256° West  Level Estimated
Tue 10:32:00 AM 60.3594 -22.7045 255° West  Level Estimated
Tue 10:33:00 AM 60.3269 -22.9506 255° West  Level Estimated
Tue 10:34:00 AM 60.2939 -23.1963 255° West  Level Estimated
Tue 10:35:00 AM 60.2605 -23.4414 255° West  Level Estimated
Tue 10:36:00 AM 60.2267 -23.6861 255° West  Level Estimated
Tue 10:37:00 AM 60.1924 -23.9302 254° West  Level Estimated
Tue 10:38:00 AM 60.1576 -24.1739 254° West  Level Estimated
Tue 10:39:00 AM 60.1224 -24.4170 254° West  Level Estimated
Tue 10:40:00 AM 60.0868 -24.6596 254° West  Level Estimated
Tue 10:41:00 AM 60.0507 -24.9017 253° West  Level Estimated
Tue 10:42:00 AM 60.0142 -25.1432 253° West  Level Estimated
Tue 10:43:00 AM 59.9772 -25.3842 253° West  Level Estimated
Tue 10:44:00 AM 59.9398 -25.6247 253° West  Level Estimated
Tue 10:45:00 AM 59.9020 -25.8646 253° West  Level Estimated
Tue 10:46:00 AM 59.8637 -26.1040 252° West  Level Estimated
Tue 10:47:00 AM 59.8250 -26.3428 252° West  Level Estimated
Tue 10:48:00 AM 59.7859 -26.5810 252° West  Level Estimated
Tue 10:49:00 AM 59.7463 -26.8187 252° West  Level Estimated
Tue 10:50:00 AM 59.7063 -27.0558 252° West  Level Estimated
Tue 10:51:00 AM 59.6659 -27.2924 251° West  Level Estimated
Tue 10:52:00 AM 59.6250 -27.5284 251° West  Level Estimated
Tue 10:53:00 AM 59.5838 -27.7638 251° West  Level Estimated
Tue 10:54:00 AM 59.5421 -27.9986 251° West  Level Estimated
Tue 10:55:00 AM 59.5000 -28.2329 251° West  Level Estimated
Tue 10:56:00 AM 59.4574 -28.4666 250° West  Level Estimated
Tue 10:57:00 AM 59.4145 -28.6996 250° West  Level Estimated
Tue 10:58:00 AM 59.3711 -28.9321 250° West  Level Estimated
Tue 10:59:00 AM 59.3274 -29.1640 250° West  Level Estimated
Tue 11:00:00 AM 59.2832 -29.3953 250° West  Level Estimated
Tue 11:01:00 AM 59.2386 -29.6259 249° West  Level Estimated
Tue 11:02:00 AM 59.1936 -29.8560 249° West  Level Estimated
Tue 11:03:00 AM 59.1482 -30.0855 249° West  Level Estimated
Tue 11:04:00 AM 59.1024 -30.3143 249° West  Level Estimated
Tue 11:05:00 AM 59.0562 -30.5426 249° West  Level Estimated
Tue 11:06:00 AM 59.0095 -30.7702 248° West  Level Estimated
Tue 11:07:00 AM 58.9626 -30.9972 248° West  Level Estimated
Tue 11:08:00 AM 58.9151 -31.2236 248° West  Level Estimated
Tue 11:09:00 AM 58.8673 -31.4494 248° West  Level Estimated
Tue 11:10:00 AM 58.8191 -31.6745 248° West  Level Estimated
Tue 11:11:00 AM 58.7706 -31.8990 247° West  Level Estimated
Tue 11:12:00 AM 58.7216 -32.1229 247° West  Level Estimated
Tue 11:13:00 AM 58.6722 -32.3462 247° West  Level Estimated
Tue 11:14:00 AM 58.6225 -32.5688 247° West  Level Estimated
Tue 11:15:00 AM 58.5724 -32.7908 247° West  Level Estimated
Tue 11:16:00 AM 58.5219 -33.0121 246° West  Level Estimated
Tue 11:17:00 AM 58.4710 -33.2328 246° West  Level Estimated
Tue 11:18:00 AM 58.4197 -33.4529 246° West  Level Estimated
Tue 11:19:00 AM 58.3681 -33.6723 246° West  Level Estimated
Tue 11:20:00 AM 58.3161 -33.8911 246° West  Level Estimated
Tue 11:21:00 AM 58.2637 -34.1092 246° West  Level Estimated
Tue 11:22:00 AM 58.2109 -34.3267 245° Southwest  Level Estimated
Tue 11:23:00 AM 58.1578 -34.5435 245° Southwest  Level Estimated
Tue 11:24:00 AM 58.1043 -34.7597 245° Southwest  Level Estimated
Tue 11:25:00 AM 58.0504 -34.9753 245° Southwest  Level Estimated
Tue 11:26:00 AM 57.9962 -35.1902 245° Southwest  Level Estimated
Tue 11:27:00 AM 57.9416 -35.4044 244° Southwest  Level Estimated
Tue 11:28:00 AM 57.8867 -35.6180 244° Southwest  Level Estimated
Tue 11:29:00 AM 57.8314 -35.8309 244° Southwest  Level Estimated
Tue 11:30:00 AM 57.7757 -36.0432 244° Southwest  Level Estimated
Tue 11:31:00 AM 57.7197 -36.2548 244° Southwest  Level Estimated
Tue 11:32:00 AM 57.6634 -36.4658 244° Southwest  Level Estimated
Tue 11:33:00 AM 57.6067 -36.6761 243° Southwest  Level Estimated
Tue 11:34:00 AM 57.5496 -36.8858 243° Southwest  Level Estimated
Tue 11:35:00 AM 57.4922 -37.0948 243° Southwest  Level Estimated
Tue 11:36:00 AM 57.4345 -37.3031 243° Southwest  Level Estimated
Tue 11:37:00 AM 57.3764 -37.5108 243° Southwest  Level Estimated
Tue 11:38:00 AM 57.3179 -37.7178 242° Southwest  Level Estimated
Tue 11:39:00 AM 57.2592 -37.9242 242° Southwest  Level Estimated
Tue 11:40:00 AM 57.2001 -38.1299 242° Southwest  Level Estimated
Tue 11:41:00 AM 57.1406 -38.3349 242° Southwest  Level Estimated
Tue 11:42:00 AM 57.0808 -38.5393 242° Southwest  Level Estimated
Tue 11:43:00 AM 57.0207 -38.7430 242° Southwest  Level Estimated
Tue 11:44:00 AM 56.9603 -38.9461 241° Southwest  Level Estimated
Tue 11:45:00 AM 56.8995 -39.1485 241° Southwest  Level Estimated
Tue 11:46:00 AM 56.8384 -39.3502 241° Southwest  Level Estimated
Tue 11:47:00 AM 56.7770 -39.5513 241° Southwest  Level Estimated
Tue 11:48:00 AM 56.7153 -39.7518 241° Southwest  Level Estimated
Tue 11:49:00 AM 56.6532 -39.9515 241° Southwest  Level Estimated
Tue 11:50:00 AM 56.5908 -40.1506 240° Southwest  Level Estimated
Tue 11:51:00 AM 56.5281 -40.3491 240° Southwest  Level Estimated
Tue 11:52:00 AM 56.4651 -40.5469 240° Southwest  Level Estimated
Tue 11:53:00 AM 56.4018 -40.7440 240° Southwest  Level Estimated
Tue 11:54:00 AM 56.3382 -40.9405 240° Southwest  Level Estimated
Tue 11:55:00 AM 56.2742 -41.1363 240° Southwest  Level Estimated
Tue 11:56:00 AM 56.2100 -41.3315 239° Southwest  Level Estimated
Tue 11:57:00 AM 56.1454 -41.5260 239° Southwest  Level Estimated
Tue 11:58:00 AM 56.0806 -41.7199 239° Southwest  Level Estimated
Tue 11:59:00 AM 56.0154 -41.9131 239° Southwest  Level Estimated
Tue 12:00:00 PM 55.9499 -42.1057 239° Southwest  Level Estimated
Tue 12:01:00 PM 55.8842 -42.2976 239° Southwest  Level Estimated
Tue 12:02:00 PM 55.8181 -42.4888 238° Southwest  Level Estimated
Tue 12:03:00 PM 55.7517 -42.6794 238° Southwest  Level Estimated
Tue 12:04:00 PM 55.6851 -42.8694 238° Southwest  Level Estimated
Tue 12:05:00 PM 55.6181 -43.0587 238° Southwest  Level Estimated
Tue 12:06:00 PM 55.5509 -43.2473 238° Southwest  Level Estimated
Tue 12:07:00 PM 55.4834 -43.4354 238° Southwest  Level Estimated
Tue 12:08:00 PM 55.4156 -43.6227 238° Southwest  Level Estimated
Tue 12:09:00 PM 55.3475 -43.8095 237° Southwest  Level Estimated
Tue 12:10:00 PM 55.2791 -43.9955 237° Southwest  Level Estimated
Tue 12:11:00 PM 55.2104 -44.1810 237° Southwest  Level Estimated
Tue 12:12:00 PM 55.1415 -44.3658 237° Southwest  Level Estimated
Tue 12:13:00 PM 55.0723 -44.5500 237° Southwest  Level Estimated
Tue 12:13:48 PM 63.1333 -54.8667 236° Southwest 260 299 37,000  Level Gander Center
Tue 12:14:00 PM 55.0028 -44.7335 237° Southwest  Level Estimated
Tue 12:14:48 PM 63.1167 -55.1333 262° West 440 506 37,000  Level Gander Center
Tue 12:15:00 PM 54.9330 -44.9164 236° Southwest  Level Estimated
Tue 12:15:48 PM 63.0333 -55.4000 236° Southwest 470 541 37,000  Level Gander Center
Tue 12:16:00 PM 54.8629 -45.0987 236° Southwest  Level Estimated
Tue 12:16:48 PM 62.9833 -55.6667 248° West 470 541 37,000  Level Gander Center
Tue 12:17:00 PM 54.7943 -45.2759 236° Southwest  Level Estimated
Tue 12:17:48 PM 62.9333 -55.9333 248° West 470 541 37,000  Level Gander Center
Tue 12:18:00 PM 54.7255 -45.4524 236° Southwest  Level Estimated
Tue 12:18:48 PM 62.8833 -56.2000 248° West 470 541 37,000  Level Gander Center
Tue 12:19:00 PM 54.6564 -45.6283 236° Southwest  Level Estimated
Tue 12:19:48 PM 62.8000 -56.4167 230° Southwest 470 541 37,000  Level Gander Center
Tue 12:21:48 PM 62.6667 -56.8833 238° Southwest 470 541 37,000  Level Gander Center
Tue 12:22:48 PM 62.6000 -57.1333 240° Southwest 470 541 37,000  Level Gander Center
Tue 12:23:48 PM 62.5167 -57.3667 232° Southwest 480 552 37,000  Level Gander Center
Tue 12:24:24 PM 62.4667 -57.4500 218° Southwest 480 552 37,000  Level Montreal Center
Tue 12:24:55 PM 62.4333 -57.6667 252° West 470 541 37,000  Level Gander Center
Tue 12:25:55 PM 62.3667 -57.8833 237° Southwest 470 541 37,000  Level Gander Center
Tue 12:26:48 PM 62.3000 -58.0667 232° Southwest 470 541 37,000  Level Gander Center
Tue 12:27:48 PM 62.2333 -58.3000 239° Southwest 470 541 37,000  Level Gander Center
Tue 12:28:24 PM 62.2000 -58.3500 215° Southwest 450 518 37,000  Level Montreal Center
Tue 12:29:24 PM 62.1500 -58.5667 244° Southwest 450 518 37,000  Level Montreal Center
Tue 12:29:55 PM 62.0667 -58.8000 233° Southwest 460 529 37,000  Level Gander Center
Tue 12:30:48 PM 62.0500 -58.9167 253° West 450 518 37,000  Level Gander Center
Tue 12:31:48 PM 61.9333 -59.2000 229° Southwest 480 552 37,000  Level Gander Center
Tue 12:32:55 PM 61.8333 -59.4500 230° Southwest 480 552 37,000  Level Gander Center
Tue 12:33:55 PM 61.7667 -59.6667 237° Southwest 470 541 37,000  Level Gander Center
Tue 12:34:55 PM 61.6833 -59.9167 235° Southwest 470 541 37,000  Level Gander Center
Tue 12:35:48 PM 61.6167 -60.1000 233° Southwest 470 541 37,000  Level Gander Center
Tue 12:36:48 PM 61.5667 -60.3000 242° Southwest 470 541 37,000  Level Gander Center
Tue 12:37:48 PM 61.4833 -60.5167 231° Southwest 470 541 37,000  Level Gander Center
Tue 12:38:48 PM 61.4000 -60.7333 231° Southwest 470 541 37,000  Level Gander Center
Tue 12:39:48 PM 61.3167 -60.9333 229° Southwest 460 529 37,000  Level Gander Center
Tue 12:40:24 PM 61.2667 -61.0000 213° Southwest 460 529 37,000  Level Montreal Center
Tue 12:41:24 PM 61.1833 -61.2167 231° Southwest 470 541 37,000  Level Montreal Center
Tue 12:41:55 PM 61.1500 -61.4167 251° West 460 529 37,000  Level Gander Center
Tue 12:42:55 PM 61.0667 -61.6333 232° Southwest 470 541 37,000  Level Gander Center
Tue 12:43:48 PM 61.0000 -61.8000 231° Southwest 460 529 37,000  Level Gander Center
Tue 12:44:48 PM 60.9333 -61.9667 231° Southwest 470 541 37,000 -50 Level Gander Center
Tue 12:45:48 PM 60.8500 -62.2000 234° Southwest 460 529 36,900 -400 Descending Gander Center
Tue 12:46:48 PM 60.7667 -62.4333 234° Southwest 470 541 36,200 -450 Descending Gander Center
Tue 12:47:48 PM 60.7000 -62.6333 236° Southwest 460 529 36,000 -100 Descending Gander Center
Tue 12:48:48 PM 60.6000 -62.8667 229° Southwest 460 529 36,000  Level Gander Center
Tue 12:49:48 PM 60.5167 -63.0667 230° Southwest 460 529 36,000  Level Gander Center
Tue 12:50:48 PM 60.4500 -63.2667 236° Southwest 460 529 36,000  Level Gander Center
Tue 12:51:48 PM 60.3667 -63.4667 230° Southwest 460 529 36,000  Level Gander Center
Tue 12:52:48 PM 60.2833 -63.6667 230° Southwest 460 529 36,000  Level Gander Center
Tue 12:53:24 PM 60.2333 -63.7000 198° South 450 518 36,000  Level Montreal Center
Tue 12:54:24 PM 60.1500 -63.9000 230° Southwest 450 518 36,000  Level Montreal Center
Tue 12:55:24 PM 60.0667 -64.1000 230° Southwest 450 518 36,000  Level Montreal Center
Tue 12:56:24 PM 59.9833 -64.3000 230° Southwest 450 518 36,000  Level Montreal Center
Tue 12:57:24 PM 59.9000 -64.5000 230° Southwest 450 518 36,000  Level Montreal Center
Tue 12:58:24 PM 59.8333 -64.7000 237° Southwest 450 518 36,000  Level Montreal Center
Tue 12:59:24 PM 59.7500 -64.8667 225° Southwest 450 518 36,000  Level Montreal Center
Tue 01:00:24 PM 59.6667 -65.0500 228° Southwest 450 518 36,000  Level Montreal Center
Tue 01:01:24 PM 59.5833 -65.2500 231° Southwest 450 518 36,000  Level Montreal Center
Tue 01:02:24 PM 59.5000 -65.4333 228° Southwest 450 518 36,000  Level Montreal Center
Tue 01:03:24 PM 59.4167 -65.6333 231° Southwest 450 518 36,000  Level Montreal Center
Tue 01:04:24 PM 59.3333 -65.8167 228° Southwest 450 518 36,000  Level Montreal Center
Tue 01:05:24 PM 59.2333 -65.9833 220° Southwest 450 518 36,000  Level Montreal Center
Tue 01:06:24 PM 59.1333 -66.1167 214° Southwest 450 518 36,000  Level Montreal Center
Tue 01:07:24 PM 59.0333 -66.2667 218° Southwest 450 518 36,000  Level Montreal Center
Tue 01:08:24 PM 58.9333 -66.4000 215° Southwest 450 518 36,000  Level Montreal Center
Tue 01:09:24 PM 58.8333 -66.5500 218° Southwest 450 518 36,000  Level Montreal Center
Tue 01:10:24 PM 58.7333 -66.6833 215° Southwest 450 518 36,000  Level Montreal Center
Tue 01:11:24 PM 58.6333 -66.8333 218° Southwest 450 518 36,000  Level Montreal Center
Tue 01:12:24 PM 58.5333 -66.9833 218° Southwest 450 518 36,000  Level Montreal Center
Tue 01:13:24 PM 58.4167 -67.1167 211° Southwest 450 518 36,000  Level Montreal Center
Tue 01:14:24 PM 58.3167 -67.2667 218° Southwest 450 518 36,000  Level Montreal Center
Tue 01:15:24 PM 58.2167 -67.3833 212° Southwest 450 518 36,000  Level Montreal Center
Tue 01:16:24 PM 58.1167 -67.5500 221° Southwest 450 518 36,000  Level Montreal Center
Tue 01:17:24 PM 58.0167 -67.6667 212° Southwest 450 518 36,000  Level Montreal Center
Tue 01:18:24 PM 57.9000 -67.8167 214° Southwest 450 518 36,000  Level Montreal Center
Tue 01:19:24 PM 57.8000 -67.9667 219° Southwest 450 518 36,000  Level Montreal Center
Tue 01:20:24 PM 57.7000 -68.0833 212° Southwest 450 518 36,000  Level Montreal Center
Tue 01:21:24 PM 57.6000 -68.2333 219° Southwest 450 518 36,000  Level Montreal Center
Tue 01:22:24 PM 57.4833 -68.3833 215° Southwest 450 518 36,000  Level Montreal Center
Tue 01:23:24 PM 57.3833 -68.5000 212° Southwest 450 518 36,000  Level Montreal Center
Tue 01:24:24 PM 57.2833 -68.6333 216° Southwest 450 518 36,000  Level Montreal Center
Tue 01:25:24 PM 57.1667 -68.7500 208° Southwest 450 518 36,000  Level Montreal Center
Tue 01:26:24 PM 57.0833 -68.9000 224° Southwest 450 518 36,000  Level Montreal Center
Tue 01:27:24 PM 56.9667 -69.0167 209° Southwest 450 518 36,000  Level Montreal Center
Tue 01:28:24 PM 56.8833 -69.1500 221° Southwest 450 518 36,000  Level Montreal Center
Tue 01:29:24 PM 56.7667 -69.2667 209° Southwest 450 518 36,000  Level Montreal Center
Tue 01:30:24 PM 56.6667 -69.4000 216° Southwest 450 518 36,000  Level Montreal Center
Tue 01:31:24 PM 56.5500 -69.5167 209° Southwest 450 518 36,000  Level Montreal Center
Tue 01:32:24 PM 56.4500 -69.6500 216° Southwest 450 518 36,000  Level Montreal Center
Tue 01:33:24 PM 56.3333 -69.8000 216° Southwest 450 518 36,000  Level Montreal Center
Tue 01:34:24 PM 56.2333 -69.9000 209° Southwest 450 518 36,000  Level Montreal Center
Tue 01:35:24 PM 56.1333 -70.0333 217° Southwest 450 518 36,000  Level Montreal Center
Tue 01:36:24 PM 56.0333 -70.1500 213° Southwest 450 518 36,000  Level Montreal Center
Tue 01:37:24 PM 55.9167 -70.2833 213° Southwest 450 518 36,000  Level Montreal Center
Tue 01:38:24 PM 55.8167 -70.3833 209° Southwest 450 518 36,000  Level Montreal Center
Tue 01:39:24 PM 55.7167 -70.5167 217° Southwest 440 506 36,000  Level Montreal Center
Tue 01:40:24 PM 55.6167 -70.6167 209° Southwest 450 518 36,000  Level Montreal Center
Tue 01:41:24 PM 55.5167 -70.7500 217° Southwest 450 518 36,000  Level Montreal Center
Tue 01:42:24 PM 55.4000 -70.8833 213° Southwest 450 518 36,000  Level Montreal Center
Tue 01:43:24 PM 55.3000 -71.0000 214° Southwest 450 518 36,000  Level Montreal Center
Tue 01:44:24 PM 55.1833 -71.1167 210° Southwest 450 518 36,000  Level Montreal Center
Tue 01:45:24 PM 55.0833 -71.2333 214° Southwest 450 518 36,000  Level Montreal Center
Tue 01:46:24 PM 54.9667 -71.3500 210° Southwest 440 506 36,000  Level Montreal Center
Tue 01:47:24 PM 54.8667 -71.4500 210° Southwest 450 518 36,000  Level Montreal Center
Tue 01:48:24 PM 54.7667 -71.5833 218° Southwest 450 518 36,000  Level Montreal Center
Tue 01:49:24 PM 54.6667 -71.6833 210° Southwest 450 518 36,000  Level Montreal Center
Tue 01:50:24 PM 54.5500 -71.8167 214° Southwest 450 518 36,000  Level Montreal Center
Tue 01:51:24 PM 54.4500 -71.9000 206° Southwest 450 518 36,000  Level Montreal Center
Tue 01:52:24 PM 54.3500 -72.0333 218° Southwest 450 518 36,000  Level Montreal Center
Tue 01:53:24 PM 54.2167 -72.1333 204° Southwest 450 518 36,000  Level Montreal Center
Tue 01:54:24 PM 54.1167 -72.2500 214° Southwest 450 518 36,000  Level Montreal Center
Tue 01:55:24 PM 54.0167 -72.3833 218° Southwest 450 518 36,000  Level Montreal Center
Tue 01:56:24 PM 53.9167 -72.4833 211° Southwest 450 518 36,000  Level Montreal Center
Tue 01:57:24 PM 53.8000 -72.6000 211° Southwest 450 518 36,000  Level Montreal Center
Tue 01:58:24 PM 53.7000 -72.7000 211° Southwest 450 518 36,000  Level Montreal Center
Tue 01:59:24 PM 53.5833 -72.8167 211° Southwest 450 518 36,000  Level Montreal Center
Tue 02:00:24 PM 53.4833 -72.9000 206° Southwest 450 518 36,000  Level Montreal Center
Tue 02:01:24 PM 53.3667 -73.0333 214° Southwest 440 506 36,000  Level Montreal Center
Tue 02:02:24 PM 53.2667 -73.1167 206° Southwest 440 506 36,000  Level Montreal Center
Tue 02:03:24 PM 53.1500 -73.2333 211° Southwest 440 506 36,000  Level Montreal Center
Tue 02:04:24 PM 53.0500 -73.3333 211° Southwest 440 506 36,000  Level Montreal Center
Tue 02:05:24 PM 52.9500 -73.4500 215° Southwest 450 518 36,000  Level Montreal Center
Tue 02:06:24 PM 52.8500 -73.5333 207° Southwest 440 506 36,000  Level Montreal Center
Tue 02:07:24 PM 52.7333 -73.6500 211° Southwest 450 518 36,000  Level Montreal Center
Tue 02:08:24 PM 52.6167 -73.7667 211° Southwest 450 518 36,000  Level Montreal Center
Tue 02:09:24 PM 52.5167 -73.8667 211° Southwest 450 518 36,000  Level Montreal Center
Tue 02:10:24 PM 52.4000 -73.9833 211° Southwest 440 506 36,000  Level Montreal Center
Tue 02:11:24 PM 52.3000 -74.0667 207° Southwest 440 506 36,000  Level Montreal Center
Tue 02:12:24 PM 52.1833 -74.1833 212° Southwest 440 506 36,000  Level Montreal Center
Tue 02:13:24 PM 52.0833 -74.2667 207° Southwest 440 506 36,000  Level Montreal Center
Tue 02:14:24 PM 51.9667 -74.3833 212° Southwest 440 506 36,000  Level Montreal Center
Tue 02:15:24 PM 51.8667 -74.4667 207° Southwest 440 506 36,000  Level Montreal Center
Tue 02:16:24 PM 51.7667 -74.5500 207° Southwest 440 506 36,000  Level Montreal Center
Tue 02:17:24 PM 51.6500 -74.6667 212° Southwest 450 518 36,000  Level Montreal Center
Tue 02:18:24 PM 51.5333 -74.7667 208° Southwest 450 518 36,000  Level Montreal Center
Tue 02:19:24 PM 51.4333 -74.8500 207° Southwest 440 506 36,000  Level Montreal Center
Tue 02:20:24 PM 51.3333 -74.9667 216° Southwest 440 506 36,000  Level Montreal Center
Tue 02:21:24 PM 51.2167 -75.0500 204° Southwest 440 506 36,000  Level Montreal Center
Tue 02:22:24 PM 51.1167 -75.1667 216° Southwest 440 506 36,000  Level Montreal Center
Tue 02:23:24 PM 51.0000 -75.2500 204° Southwest 440 506 36,000  Level Montreal Center
Tue 02:24:24 PM 50.9000 -75.3500 212° Southwest 440 506 36,000  Level Montreal Center
Tue 02:25:24 PM 50.7833 -75.4333 204° Southwest 440 506 36,000  Level Montreal Center
Tue 02:26:24 PM 50.6833 -75.5333 212° Southwest 440 506 36,000  Level Montreal Center
Tue 02:27:24 PM 50.5667 -75.6167 204° Southwest 440 506 36,000  Level Montreal Center
Tue 02:28:24 PM 50.4667 -75.7333 217° Southwest 440 506 36,000  Level Montreal Center
Tue 02:29:24 PM 50.3500 -75.8000 200° South 440 506 36,000  Level Montreal Center
Tue 02:30:24 PM 50.2500 -75.9167 217° Southwest 440 506 36,000  Level Montreal Center
Tue 02:31:24 PM 50.1500 -76.0000 208° Southwest 440 506 36,000  Level Montreal Center
Tue 02:32:24 PM 50.0333 -76.1000 209° Southwest 440 506 36,000  Level Montreal Center
Tue 02:33:24 PM 49.9167 -76.1667 200° South 440 506 36,000  Level Montreal Center
Tue 02:34:24 PM 49.8000 -76.2833 213° Southwest 440 506 36,000  Level Montreal Center
Tue 02:35:24 PM 49.7000 -76.3500 203° Southwest 450 518 36,000  Level Montreal Center
Tue 02:36:24 PM 49.5833 -76.4667 213° Southwest 430 495 36,000  Level Montreal Center
Tue 02:37:24 PM 49.4667 -76.5333 200° South 460 529 36,000  Level Montreal Center
Tue 02:38:24 PM 49.3667 -76.6333 213° Southwest 440 506 36,000  Level Montreal Center
Tue 02:39:24 PM 49.2500 -76.7167 205° Southwest 450 518 36,000  Level Montreal Center
Tue 02:40:24 PM 49.1500 -76.8167 213° Southwest 450 518 36,000  Level Montreal Center
Tue 02:41:24 PM 49.0333 -76.9167 209° Southwest 440 506 36,000  Level Montreal Center
Tue 02:42:24 PM 48.9333 -76.9833 204° Southwest 440 506 36,000  Level Montreal Center
Tue 02:43:24 PM 48.8167 -77.0833 209° Southwest 440 506 36,000  Level Montreal Center
Tue 02:44:24 PM 48.7000 -77.1667 205° Southwest 440 506 36,000  Level Montreal Center
Tue 02:45:24 PM 48.5833 -77.2667 210° Southwest 450 518 36,000  Level Montreal Center
Tue 02:46:24 PM 48.4833 -77.3333 204° Southwest 450 518 36,000  Level Montreal Center
Tue 02:47:24 PM 48.3667 -77.4333 210° Southwest 450 518 36,000  Level Montreal Center
Tue 02:48:24 PM 48.2667 -77.5000 204° Southwest 450 518 36,000  Level Montreal Center
Tue 02:49:24 PM 48.1500 -77.6000 210° Southwest 450 518 36,000  Level Montreal Center
Tue 02:50:24 PM 48.0333 -77.7000 210° Southwest 450 518 36,000  Level Montreal Center
Tue 02:51:24 PM 47.9333 -77.7667 204° Southwest 450 518 36,000  Level Montreal Center
Tue 02:52:24 PM 47.8000 -77.8667 207° Southwest 450 518 36,000  Level Montreal Center
Tue 02:53:24 PM 47.7000 -77.9333 204° Southwest 450 518 36,000  Level Montreal Center
Tue 02:54:24 PM 47.6000 -78.0333 214° Southwest 450 518 36,000  Level Montreal Center
Tue 02:55:24 PM 47.4833 -78.1000 201° Southwest 450 518 36,000  Level Montreal Center
Tue 02:56:24 PM 47.3667 -78.2000 210° Southwest 450 518 36,000  Level Montreal Center
Tue 02:57:24 PM 47.2500 -78.2667 201° Southwest 450 518 36,000  Level Montreal Center
Tue 03:02:53 PM 46.6555 -78.7162 207° Southwest 456 525 36,000  Level FlightAware ADS-B (CYYZ)
Tue 03:03:23 PM 46.5931 -78.7610 207° Southwest 456 525 36,000  Level FlightAware ADS-B (CYYZ)
Tue 03:03:53 PM 46.5306 -78.8061 207° Southwest 456 525 36,000  Level FlightAware ADS-B (CYYZ)
Tue 03:04:23 PM 46.4743 -78.8465 207° Southwest 455 524 36,000  Level FlightAware ADS-B (CYYZ)
Tue 03:04:53 PM 46.4181 -78.8867 207° Southwest 454 522 36,000  Level FlightAware ADS-B (CYYZ)
Tue 03:05:24 PM 46.3602 -78.9280 207° Southwest 454 522 36,000  Level FlightAware ADS-B (CYYZ)
Tue 03:05:53 PM 46.3048 -78.9677 207° Southwest 455 524 36,000  Level FlightAware ADS-B (CYYZ)
Tue 03:06:23 PM 46.2537 -79.0041 207° Southwest 455 524 36,000  Level FlightAware ADS-B (CYYZ)
Tue 03:06:52 PM 46.1977 -79.0438 207° Southwest 455 524 36,000  Level FlightAware ADS-B (CYYZ)
Tue 03:07:23 PM 46.1340 -79.0887 207° Southwest 455 524 36,000  Level FlightAware ADS-B (CYYZ)
Tue 03:07:53 PM 46.0776 -79.1285 207° Southwest 455 524 36,000  Level FlightAware ADS-B (CYYZ)
Tue 03:08:24 PM 46.0225 -79.1673 207° Southwest 454 522 36,000  Level FlightAware ADS-B (CYYZ)
Tue 03:08:53 PM 45.9668 -79.2064 206° Southwest 455 524 36,000  Level FlightAware ADS-B (CYYZ)
Tue 03:09:23 PM 45.9123 -79.2445 207° Southwest 456 525 36,000  Level FlightAware ADS-B (CYYZ)
Tue 03:09:53 PM 45.8522 -79.2865 206° Southwest 454 522 36,000  Level FlightAware ADS-B (CYYZ)
Tue 03:10:23 PM 45.7942 -79.3270 207° Southwest 453 521 36,000  Level FlightAware ADS-B (CYYZ)
Tue 03:10:54 PM 45.7380 -79.3662 207° Southwest 453 521 36,000  Level FlightAware ADS-B (CYYZ)
Tue 03:11:23 PM 45.6820 -79.4053 206° Southwest 454 522 36,000  Level FlightAware ADS-B (CYYZ)
Tue 03:11:53 PM 45.6246 -79.4450 206° Southwest 455 524 36,000  Level FlightAware ADS-B (CYYZ)
Tue 03:12:23 PM 45.5724 -79.4811 207° Southwest 456 525 36,000  Level FlightAware ADS-B (CYYZ)
Tue 03:12:53 PM 45.5127 -79.5223 206° Southwest 457 526 36,000  Level FlightAware ADS-B (CYYZ)
Tue 03:13:23 PM 45.4534 -79.5630 206° Southwest 459 528 36,000  Level FlightAware ADS-B (CYYZ)
Tue 03:13:54 PM 45.3967 -79.6020 206° Southwest 461 531 36,000  Level FlightAware ADS-B (CYYZ)
Tue 03:14:23 PM 45.3386 -79.6418 206° Southwest 460 529 36,000  Level FlightAware ADS-B (CYYZ)
Tue 03:14:54 PM 45.2805 -79.6816 206° Southwest 460 529 36,000  Level FlightAware ADS-B (CYYZ)
Tue 03:15:24 PM 45.2262 -79.7185 206° Southwest 459 528 36,000  Level FlightAware ADS-B (CYYZ)
Tue 03:15:54 PM 45.1668 -79.7591 206° Southwest 458 527 36,000  Level FlightAware ADS-B (CYYZ)
Tue 03:16:23 PM 45.1086 -79.7985 206° Southwest 457 526 36,000  Level FlightAware ADS-B (CYYZ)
Tue 03:16:39 PM 45.1049 -79.8010 206° Southwest 457 526 36,000  Level FlightAware ADS-B (EPLB / LUZ)
Tue 03:16:53 PM 45.0522 -79.8368 206° Southwest 457 526 36,000  Level FlightAware ADS-B (CYYZ)
Tue 03:17:18 PM 45.0045 -79.8690 206° Southwest 457 526 36,000  Level FlightAware ADS-B (EPLB / LUZ)
Tue 03:17:23 PM 44.9944 -79.8758 206° Southwest 457 526 36,000  Level FlightAware ADS-B (CYYZ)
Tue 03:17:53 PM 44.9379 -79.9139 206° Southwest 457 526 36,000  Level FlightAware ADS-B (CYYZ)
Tue 03:17:58 PM 44.9289 -79.9199 206° Southwest 458 527 36,000  Level FlightAware ADS-B (EPLB / LUZ)
Tue 03:18:23 PM 44.8814 -79.9519 206° Southwest 457 526 36,000  Level FlightAware ADS-B (CYYZ)
Tue 03:18:31 PM 44.8706 -79.9592 206° Southwest 457 526 36,000  Level FlightAware ADS-B (EPLB / LUZ)
Tue 03:18:53 PM 44.8257 -79.9894 206° Southwest 457 526 36,000  Level FlightAware ADS-B (CYYZ)
Tue 03:19:10 PM 44.8029 -80.0047 206° Southwest 458 527 36,000  Level FlightAware ADS-B (EPLB / LUZ)
Tue 03:19:23 PM 44.7654 -80.0298 206° Southwest 457 526 36,000  Level FlightAware ADS-B (CYYZ)
Tue 03:19:42 PM 44.7311 -80.0528 206° Southwest 459 528 36,000  Level FlightAware ADS-B (EPLB / LUZ)
Tue 03:19:53 PM 44.7083 -80.0682 206° Southwest 458 527 36,000  Level FlightAware ADS-B (CYYZ)
Tue 03:20:22 PM 44.6563 -80.1028 205° Southwest 459 528 36,000  Level FlightAware ADS-B (EPLB / LUZ)
Tue 03:20:24 PM 44.6502 -80.1069 206° Southwest 459 528 36,000  Level FlightAware ADS-B (CYYZ)
Tue 03:20:53 PM 44.5942 -80.1441 206° Southwest 460 529 36,000  Level FlightAware ADS-B (CYYZ)
Tue 03:20:54 PM 44.6154 -80.1299 205° Southwest 460 529 36,000  Level FlightAware ADS-B (EPLB / LUZ)
Tue 03:21:23 PM 44.5350 -80.1833 206° Southwest 461 531 36,000  Level FlightAware ADS-B (CYYZ)
Tue 03:21:34 PM 44.5199 -80.1933 205° Southwest 461 531 36,000  Level FlightAware ADS-B (EPLB / LUZ)
Tue 03:21:53 PM 44.4778 -80.2211 206° Southwest 461 531 36,000  Level FlightAware ADS-B (CYYZ)
Tue 03:22:24 PM 44.4203 -80.2590 206° Southwest 461 531 36,000  Level FlightAware ADS-B (CYYZ)
Tue 03:22:30 PM 44.4330 -80.2506 205° Southwest 462 532 36,000  Level FlightAware ADS-B (EPLB / LUZ)
Tue 03:22:53 PM 44.3620 -80.2977 206° Southwest 460 529 36,000  Level FlightAware ADS-B (CYYZ)
Tue 03:23:23 PM 44.3058 -80.3347 206° Southwest 460 529 36,000  Level FlightAware ADS-B (CYYZ)
Tue 03:23:53 PM 44.2470 -80.3733 206° Southwest 462 532 36,000  Level FlightAware ADS-B (CYYZ)
Tue 03:23:58 PM 44.3459 -80.3083 205° Southwest 463 533 36,000  Level FlightAware ADS-B (CYKF)
Tue 03:24:23 PM 44.1884 -80.4119 206° Southwest 464 534 36,000  Level FlightAware ADS-B (CYYZ)
Tue 03:24:53 PM 44.1307 -80.4497 206° Southwest 464 534 36,000  Level FlightAware ADS-B (CYYZ)
Tue 03:24:54 PM 44.1411 -80.4429 205° Southwest 465 535 36,000  Level FlightAware ADS-B (EPLB / LUZ)
Tue 03:25:23 PM 44.0730 -80.4872 206° Southwest 464 534 36,000  Level FlightAware ADS-B (CYYZ)
Tue 03:25:46 PM 44.0272 -80.5170 205° Southwest 466 536 36,000  Level FlightAware ADS-B (EPLB / LUZ)
Tue 03:25:53 PM 44.0131 -80.5261 206° Southwest 467 537 36,000  Level FlightAware ADS-B (CYYZ)
Tue 03:26:23 PM 43.9551 -80.5638 206° Southwest 468 539 36,000  Level FlightAware ADS-B (CYYZ)
Tue 03:26:26 PM 43.9651 -80.5573 205° Southwest 468 539 36,000  Level FlightAware ADS-B (EPLB / LUZ)
Tue 03:26:54 PM 43.8965 -80.6018 206° Southwest 468 539 36,000  Level FlightAware ADS-B (CYYZ)
Tue 03:26:58 PM 43.9007 -80.5991 205° Southwest 468 539 36,000  Level FlightAware ADS-B (EPLB / LUZ)
Tue 03:27:24 PM 43.8374 -80.6402 206° Southwest 464 534 36,000  Level FlightAware ADS-B (CYYZ)
Tue 03:27:37 PM 43.8104 -80.6576 205° Southwest 464 534 36,000  Level FlightAware ADS-B (EPLB / LUZ)
Tue 03:27:53 PM 43.7789 -80.6778 205° Southwest 463 533 36,000  Level FlightAware ADS-B (CYYZ)
Tue 03:28:10 PM 43.7470 -80.6983 205° Southwest 462 532 36,000  Level FlightAware ADS-B
Tue 03:28:23 PM 43.7206 -80.7153 205° Southwest 462 532 36,000  Level FlightAware ADS-B (CYYZ)
Tue 03:28:53 PM 43.6637 -80.7519 205° Southwest 460 529 36,000  Level FlightAware ADS-B (CYYZ)
Tue 03:29:24 PM 43.6060 -80.7889 205° Southwest 462 532 36,000  Level FlightAware ADS-B (CYYZ)
Tue 03:29:46 PM 43.5701 -80.8119 205° Southwest 462 532 36,000  Level FlightAware ADS-B (EPLB / LUZ)
Tue 03:29:53 PM 43.5486 -80.8257 205° Southwest 462 532 36,000  Level FlightAware ADS-B (CYYZ)
Tue 03:30:24 PM 43.4885 -80.8640 205° Southwest 462 532 36,000  Level FlightAware ADS-B (CYYZ)
Tue 03:30:34 PM 43.4691 -80.8763 205° Southwest 463 533 36,000  Level FlightAware ADS-B (EPLB / LUZ)
Tue 03:30:54 PM 43.4310 -80.9006 205° Southwest 462 532 36,000  Level FlightAware ADS-B (CYYZ)
Tue 03:31:10 PM 43.3984 -80.9214 205° Southwest 463 533 36,000  Level FlightAware ADS-B
Tue 03:31:24 PM 43.3724 -80.9380 205° Southwest 462 532 36,000  Level FlightAware ADS-B (CYYZ)
Tue 03:31:50 PM 43.3232 -80.9693 205° Southwest 462 532 36,000  Level FlightAware ADS-B (EPLB / LUZ)
Tue 03:31:53 PM 43.3137 -80.9753 205° Southwest 461 531 36,000  Level FlightAware ADS-B (CYYZ)
Tue 03:32:23 PM 43.2582 -81.0103 205° Southwest 462 532 36,000  Level FlightAware ADS-B (CYYZ)
Tue 03:32:27 PM 43.2496 -81.0157 205° Southwest 462 532 36,000  Level FlightAware ADS-B (EPLB / LUZ)
Tue 03:32:53 PM 43.1982 -81.0481 205° Southwest 463 533 36,000  Level FlightAware ADS-B (CYYZ)
Tue 03:32:58 PM 43.2231 -81.0323 205° Southwest 464 534 36,000  Level FlightAware ADS-B (CYKF)
Tue 03:33:23 PM 43.1466 -81.0806 205° Southwest 464 534 36,000  Level FlightAware ADS-B (CYYZ)
Tue 03:33:43 PM 43.1021 -81.1088 205° Southwest 466 536 36,000  Level FlightAware ADS-B (EPLB / LUZ)
Tue 03:33:53 PM 43.0813 -81.1219 205° Southwest 467 537 36,000  Level FlightAware ADS-B (CYYZ)
Tue 03:34:24 PM 43.0214 -81.1595 205° Southwest 468 539 36,000  Level FlightAware ADS-B (CYYZ)
Tue 03:34:38 PM 42.9953 -81.1758 205° Southwest 468 539 36,000  Level FlightAware ADS-B (EPLB / LUZ)
Tue 03:34:54 PM 42.9630 -81.1958 205° Southwest 468 539 36,000  Level FlightAware ADS-B (CYYZ)
Tue 03:35:24 PM 42.9039 -81.2323 205° Southwest 466 536 36,000  Level FlightAware ADS-B (CYYZ)
Tue 03:35:33 PM 42.8842 -81.2444 204° Southwest 466 536 36,000  Level FlightAware ADS-B (EPLB / LUZ)
Tue 03:35:54 PM 42.8452 -81.2683 205° Southwest 465 535 36,000  Level FlightAware ADS-B (CYYZ)
Tue 03:36:14 PM 42.8050 -81.2930 204° Southwest 465 535 36,000  Level FlightAware ADS-B (EPLB / LUZ)
Tue 03:36:24 PM 42.7878 -81.3036 205° Southwest 465 535 36,000  Level FlightAware ADS-B (CYYZ)
Tue 03:36:46 PM 42.7461 -81.3292 204° Southwest 465 535 36,000  Level FlightAware ADS-B (EPLB / LUZ)
Tue 03:36:54 PM 42.7290 -81.3397 205° Southwest 465 535 36,000  Level FlightAware ADS-B (CYYZ)
Tue 03:37:23 PM 42.6685 -81.3767 205° Southwest 463 533 36,000  Level FlightAware ADS-B (CYYZ)
Tue 03:37:54 PM 42.6101 -81.4126 205° Southwest 464 534 36,000  Level FlightAware ADS-B (CYYZ)
Tue 03:37:55 PM 42.6076 -81.4141 204° Southwest 464 534 36,000  Level FlightAware ADS-B (EPLB / LUZ)
Tue 03:38:24 PM 42.5521 -81.4480 205° Southwest 465 535 36,000  Level FlightAware ADS-B (CYYZ)
Tue 03:38:36 PM 42.5625 -81.4417 204° Southwest 465 535 36,000  Level FlightAware ADS-B (EPLB / LUZ)
Tue 03:38:53 PM 42.4965 -81.4818 205° Southwest 465 535 36,000  Level FlightAware ADS-B (CYYZ)
Tue 03:39:24 PM 42.4353 -81.5191 205° Southwest 462 532 36,000  Level FlightAware ADS-B (CYYZ)
Tue 03:39:54 PM 42.3781 -81.5539 205° Southwest 460 529 36,000  Level FlightAware ADS-B (CYYZ)
Tue 03:40:24 PM 42.3191 -81.5895 205° Southwest 460 529 36,000  Level FlightAware ADS-B (CYYZ)
Tue 03:40:53 PM 42.2617 -81.6242 205° Southwest 459 528 36,000  Level FlightAware ADS-B (CYYZ)
Tue 03:41:22 PM 42.2416 -81.6364 205° Southwest 459 528 36,000  Level FlightAware ADS-B (CYYZ)
Tue 03:41:53 PM 42.1492 -81.6920 205° Southwest 461 531 36,000  Level FlightAware ADS-B (CYYZ)
Tue 03:42:23 PM 42.0853 -81.7306 205° Southwest 461 531 36,000  Level FlightAware ADS-B (CYYZ)
Tue 03:42:53 PM 42.0264 -81.7661 205° Southwest 461 531 36,000  Level FlightAware ADS-B (CYYZ)
Tue 03:44:23 PM 41.8620 -81.8642 205° Southwest 460 529 36,000  Level FlightAware ADS-B (CYYZ)
Tue 03:44:53 PM 41.7938 -81.9047 204° Southwest 460 529 36,000  Level FlightAware ADS-B (CYYZ)
Tue 03:46:23 PM 41.6230 -82.0061 204° Southwest 464 534 36,000  Level FlightAware ADS-B (CYYZ)
Tue 03:46:53 PM 41.5689 -82.0381 204° Southwest 464 534 36,000  Level FlightAware ADS-B (CYYZ)
Tue 03:48:23 PM 41.4029 -82.1357 204° Southwest 464 534 36,000  Level FlightAware ADS-B (CYYZ)
Tue 03:48:53 PM 41.3408 -82.1666 204° Southwest 464 534 36,000  Level FlightAware ADS-B (CYYZ)
Tue 03:49:27 PM 41.2719 -82.1894 204° Southwest 464 534 36,000  Level Indianapolis Center
Tue 03:50:09 PM 41.1664 -82.2308 196° South 471 542 36,000  Level Cleveland Center
Tue 03:51:11 PM 41.0403 -82.2758 195° South 471 542 36,000  Level Cleveland Center
Tue 03:52:13 PM 40.9136 -82.3203 195° South 471 542 36,000  Level Cleveland Center
Tue 03:53:15 PM 40.7867 -82.3656 195° South 470 541 36,000  Level Cleveland Center
Tue 03:54:17 PM 40.6592 -82.4106 195° South 470 541 36,000  Level Cleveland Center
Tue 03:55:19 PM 40.5147 -82.4619 195° South 471 542 36,000  Level Cleveland Center
Tue 04:00:48 PM 39.8073 -82.6117 183° South 482 555 36,000  Level FlightAware ADS-B
Tue 04:01:18 PM 39.7229 -82.6174 183° South 481 554 36,000  Level FlightAware ADS-B
Tue 04:01:58 PM 39.6372 -82.6232 183° South 478 550 36,000  Level FlightAware ADS-B
Tue 04:02:28 PM 39.5751 -82.6273 183° South 476 548 36,000  Level FlightAware ADS-B
Tue 04:03:08 PM 39.4876 -82.6332 183° South 476 548 36,000  Level FlightAware ADS-B
Tue 04:03:38 PM 39.4135 -82.6382 183° South 477 549 36,000  Level FlightAware ADS-B
Tue 04:04:15 PM 39.3335 -82.6436 183° South 478 550 36,000  Level FlightAware ADS-B
Tue 04:04:46 PM 39.2709 -82.6478 183° South 479 551 36,000  Level FlightAware ADS-B
Tue 04:05:28 PM 39.1716 -82.6543 183° South 480 552 36,000  Level FlightAware ADS-B
Tue 04:05:59 PM 39.1057 -82.6586 183° South 477 549 36,000  Level FlightAware ADS-B
Tue 04:06:49 PM 38.9934 -82.6660 183° South 473 544 36,000  Level FlightAware ADS-B
Tue 04:07:20 PM 38.9258 -82.6704 183° South 467 537 36,000  Level FlightAware ADS-B
Tue 04:07:50 PM 38.8699 -82.6741 183° South 463 533 36,000  Level FlightAware ADS-B
Tue 04:08:24 PM 38.7918 -82.6794 183° South 461 531 36,000  Level FlightAware ADS-B
Tue 04:08:54 PM 38.7256 -82.6838 183° South 460 529 36,000  Level FlightAware ADS-B
Tue 04:09:25 PM 38.6601 -82.6881 183° South 459 528 36,000  Level FlightAware ADS-B
Tue 04:10:23 PM 38.5373 -82.6960 183° South 458 527 36,000  Level FlightAware ADS-B
Tue 04:11:11 PM 38.4453 -82.7022 183° South 454 522 36,000  Level Indianapolis Center
Tue 04:12:13 PM 38.3194 -82.7125 184° South 453 521 36,000  Level Indianapolis Center
Tue 04:13:15 PM 38.1928 -82.7197 183° South 453 521 36,000  Level Indianapolis Center
Tue 04:14:17 PM 38.0656 -82.7281 183° South 453 521 36,000  Level Indianapolis Center
Tue 04:15:20 PM 37.9397 -82.7367 183° South 454 522 36,000  Level Indianapolis Center
Tue 04:16:22 PM 37.7956 -82.7461 183° South 448 516 36,000  Level Indianapolis Center
Tue 04:17:24 PM 37.6742 -82.7683 188° South 444 511 36,000  Level Indianapolis Center
Tue 04:18:26 PM 37.5633 -82.8269 203° Southwest 432 497 36,000  Level Indianapolis Center
Tue 04:19:28 PM 37.4603 -82.8961 208° Southwest 423 487 36,000  Level Indianapolis Center
Tue 04:20:30 PM 37.3556 -82.9650 208° Southwest 423 487 36,000  Level Indianapolis Center
Tue 04:21:32 PM 37.2325 -83.0453 207° Southwest 425 489 36,000  Level Indianapolis Center
Tue 04:22:34 PM 37.1281 -83.1133 207° Southwest 426 490 36,000  Level Indianapolis Center
Tue 04:23:36 PM 37.0239 -83.1811 207° Southwest 426 490 36,000  Level Indianapolis Center
Tue 04:24:38 PM 36.9186 -83.2481 207° Southwest 426 490 36,000  Level Indianapolis Center
Tue 04:25:40 PM 36.7969 -83.3264 207° Southwest 426 490 36,000  Level Indianapolis Center
Tue 04:26:43 PM 36.6939 -83.3925 207° Southwest 422 486 36,000  Level Indianapolis Center
Tue 04:27:45 PM 36.5908 -83.4586 207° Southwest 420 483 36,000  Level Indianapolis Center
Tue 04:28:47 PM 36.4872 -83.5256 207° Southwest 420 483 36,000  Level Indianapolis Center
Tue 04:29:49 PM 36.3833 -83.5903 207° Southwest 420 483 36,000  Level Indianapolis Center
Tue 04:30:51 PM 36.2794 -83.6575 208° Southwest 420 483 36,000  Level Indianapolis Center
Tue 04:31:53 PM 36.1539 -83.7375 207° Southwest 420 483 36,000  Level Indianapolis Center
Tue 04:32:41 PM 36.0725 -83.7922 209° Southwest 426 490 36,000  Level Atlanta Center
Tue 04:33:41 PM 35.9706 -83.8567 207° Southwest 426 490 36,000  Level Atlanta Center
Tue 04:34:41 PM 35.8558 -83.9031 198° South 426 490 36,000  Level Atlanta Center
Tue 04:38:54 PM 35.2964 -84.0424 191° South 439 505 36,000  Level FlightAware ADS-B (KDZJ)
Tue 04:39:29 PM 35.2268 -84.0590 191° South 440 506 36,000  Level FlightAware ADS-B (KDZJ)
Tue 04:40:08 PM 35.1478 -84.0779 191° South 441 507 36,000  Level FlightAware ADS-B (KDZJ)
Tue 04:40:54 PM 35.0550 -84.1000 191° South 440 506 36,000 353 Level FlightAware ADS-B (KDZJ)
Tue 04:41:33 PM 34.9778 -84.1186 191° South 440 506 36,500 935 Climbing FlightAware ADS-B (KDZJ)
Tue 04:42:11 PM 34.9014 -84.1368 191° South 443 510 37,200 846 Climbing FlightAware ADS-B (KDZJ)
Tue 04:42:51 PM 34.8229 -84.1555 191° South 445 512 37,600 593 Climbing FlightAware ADS-B (KDZJ)
Tue 04:43:32 PM 34.7381 -84.1758 191° South 445 512 38,000 289 Climbing FlightAware ADS-B (KDZJ)
Tue 04:44:14 PM 34.6506 -84.1965 191° South 457 526 38,000  Level FlightAware ADS-B (KDZJ)
Tue 04:44:48 PM 34.5791 -84.2133 191° South 458 527 38,000  Level FlightAware ADS-B (KDZJ)
Tue 04:45:36 PM 34.4798 -84.2366 191° South 447 514 38,000  Level FlightAware ADS-B (KDZJ)
Tue 04:46:16 PM 34.3990 -84.2557 191° South 443 510 38,000  Level FlightAware ADS-B (KDZJ)
Tue 04:46:55 PM 34.3176 -84.2748 191° South 440 506 38,000  Level FlightAware ADS-B (KDZJ)
Tue 04:47:36 PM 34.2361 -84.2938 191° South 445 512 38,000  Level FlightAware ADS-B (KDZJ)
Tue 04:48:16 PM 34.1532 -84.3132 191° South 446 513 38,000  Level FlightAware ADS-B (KDZJ)
Tue 04:48:56 PM 34.0741 -84.3318 191° South 446 513 38,000  Level FlightAware ADS-B (KDZJ)
Tue 04:49:52 PM 33.9597 -84.3586 191° South 439 505 38,000  Level FlightAware ADS-B (KDZJ)
Tue 04:50:41 PM 33.9192 -84.3692 191° South 453 521 38,000  Level Atlanta Center
Tue 04:51:41 PM 33.7958 -84.3986 191° South 452 520 38,000  Level Atlanta Center
Tue 04:52:41 PM 33.6725 -84.4281 191° South 452 520 38,000  Level Atlanta Center
Tue 04:53:41 PM 33.5578 -84.4353 183° South 447 514 38,000  Level Atlanta Center
Tue 04:54:41 PM 33.4347 -84.4344 180° South 447 514 38,000 300 Level Atlanta Center
Tue 04:55:41 PM 33.3072 -84.4314 179° South 447 514 38,600 500 Climbing Atlanta Center
Tue 04:56:41 PM 33.1800 -84.4311 180° South 458 527 39,000 200 Climbing Atlanta Center
Tue 04:57:41 PM 33.0506 -84.4278 179° South 458 527 39,000  Level Atlanta Center
Tue 04:58:41 PM 32.9108 -84.4222 178° South 458 527 39,000  Level Atlanta Center
Tue 04:59:41 PM 32.8106 -84.4244 181° South 458 527 39,000  Level Atlanta Center
Tue 05:00:41 PM 32.6581 -84.4189 178° South 458 527 39,000  Level Atlanta Center
Tue 05:01:41 PM 32.5331 -84.4158 179° South 458 527 39,000  Level Atlanta Center
Tue 05:02:41 PM 32.4056 -84.4103 178° South 458 527 39,000  Level Atlanta Center
Tue 05:03:41 PM 32.2783 -84.4097 180° South 458 527 39,000  Level Atlanta Center
Tue 05:04:41 PM 32.1511 -84.4069 179° South 458 527 39,000  Level Atlanta Center
Tue 05:05:41 PM 32.0258 -84.4064 180° South 458 527 39,000  Level Atlanta Center
Tue 05:07:09 PM 31.8506 -84.3992 178° South 479 551 39,000  Level Jacksonville Center
Tue 05:08:09 PM 31.7233 -84.3972 179° South 471 542 39,000  Level Jacksonville Center
Tue 05:09:09 PM 31.5958 -84.3975 180° South 461 531 39,000  Level Jacksonville Center
Tue 05:14:56 PM 30.8307 -84.3792 179° South 461 531 39,000  Level FlightAware ADS-B (KONZ)
Tue 05:15:27 PM 30.7667 -84.3780 179° South 458 527 39,000  Level FlightAware ADS-B (KONZ)
Tue 05:16:03 PM 30.6914 -84.3759 177° South 458 527 39,000  Level FlightAware ADS-B
Tue 05:16:40 PM 30.6133 -84.3644 170° South 464 534 39,000  Level FlightAware ADS-B (KONZ)
Tue 05:17:13 PM 30.5459 -84.3453 163° South 470 541 39,000  Level FlightAware ADS-B
Tue 05:17:44 PM 30.4782 -84.3170 158° South 475 547 39,000  Level FlightAware ADS-B
Tue 05:18:19 PM 30.4112 -84.2784 150° Southeast 484 557 39,000  Level FlightAware ADS-B (KONZ)
Tue 05:18:53 PM 30.3559 -84.2421 151° Southeast 484 557 39,000  Level FlightAware ADS-B
Tue 05:19:23 PM 30.2828 -84.1946 151° Southeast 486 559 39,000  Level FlightAware ADS-B
Tue 05:19:53 PM 30.2239 -84.1564 150° Southeast 486 559 39,000  Level FlightAware ADS-B
Tue 05:20:28 PM 30.1696 -84.1209 150° Southeast 486 559 39,000  Level FlightAware ADS-B (KONZ)
Tue 05:21:13 PM 30.1075 -84.0805 150° Southeast 488 562 39,000  Level FlightAware ADS-B
Tue 05:22:09 PM 29.9758 -83.9981 150° Southeast 483 556 39,000  Level Jacksonville Center
Tue 05:23:09 PM 29.8617 -83.9106 146° Southeast 488 562 39,000  Level Jacksonville Center
Tue 05:24:09 PM 29.7600 -83.8017 137° Southeast 488 562 39,000  Level Jacksonville Center
Tue 05:25:09 PM 29.6586 -83.6933 137° Southeast 493 567 39,000  Level Jacksonville Center
Tue 05:26:09 PM 29.5464 -83.5753 138° Southeast 500 575 39,000  Level Jacksonville Center
Tue 05:27:09 PM 29.4322 -83.4933 148° Southeast 493 567 39,000  Level Jacksonville Center
Tue 05:28:09 PM 29.3133 -83.4214 152° Southeast 483 556 39,000  Level Jacksonville Center
Tue 05:29:09 PM 29.1947 -83.3469 151° Southeast 483 556 39,000  Level Jacksonville Center
Tue 05:30:09 PM 29.0803 -83.2775 152° Southeast 476 548 39,000  Level Jacksonville Center
Tue 05:31:09 PM 28.9592 -83.2058 153° Southeast 470 541 39,000  Level Jacksonville Center
Tue 05:36:38 PM 28.3115 -82.8159 152° Southeast 477 549 39,000  Level FlightAware ADS-B
Tue 05:37:22 PM 28.2344 -82.7700 152° Southeast 477 549 39,000  Level FlightAware ADS-B
Tue 05:38:22 PM 28.1068 -82.6945 152° Southeast 477 549 39,000  Level FlightAware ADS-B
Tue 05:39:42 PM 27.9525 -82.6033 152° Southeast 474 545 39,000  Level FlightAware ADS-B
Tue 05:40:23 PM 27.9086 -82.5774 152° Southeast 473 544 39,000  Level FlightAware ADS-B
Tue 05:40:53 PM 27.8153 -82.5258 153° Southeast 481 554 39,000  Level Miami Center
Tue 05:41:03 PM 27.7951 -82.5106 152° Southeast 474 545 39,000  Level FlightAware ADS-B
Tue 05:41:43 PM 27.7152 -82.4635 153° Southeast 476 548 39,000  Level FlightAware ADS-B
Tue 05:42:21 PM 27.6418 -82.4205 153° Southeast 477 549 39,000  Level FlightAware ADS-B
Tue 05:42:53 PM 27.5887 -82.3894 152° Southeast 477 549 39,000  Level FlightAware ADS-B
Tue 05:44:22 PM 27.4092 -82.2843 153° Southeast 476 548 39,000  Level FlightAware ADS-B
Tue 05:46:00 PM 27.2303 -82.1798 153° Southeast  Level FlightAware Approximate
Tue 05:46:19 PM 27.1870 -82.1551 153° Southeast 476 548 39,000  Level FlightAware ADS-B
Tue 05:47:33 PM 27.0301 -82.0739 169° South 448 516 39,000  Level FlightAware ADS-B
Tue 05:47:51 PM 26.9979 -82.0708 181° South 427 491 39,000  Level FlightAware ADS-B
Tue 05:48:26 PM 26.9273 -82.0798 188° South 417 480 39,000  Level FlightAware ADS-B
Tue 05:49:04 PM 26.8535 -82.0913 188° South 417 480 39,000  Level FlightAware ADS-B
Tue 05:49:40 PM 26.7861 -82.1017 188° South 417 480 39,000  Level FlightAware ADS-B
Tue 05:50:52 PM 26.6478 -82.1230 188° South 416 479 39,000  Level FlightAware ADS-B
Tue 05:51:30 PM 26.5751 -82.1342 188° South 417 480 39,000  Level FlightAware ADS-B
Tue 05:52:11 PM 26.5089 -82.1442 188° South 417 480 39,000  Level FlightAware ADS-B
Tue 05:52:51 PM 26.4197 -82.1579 188° South 419 482 39,000  Level FlightAware ADS-B
Tue 05:53:31 PM 26.3418 -82.1698 188° South 419 482 39,000  Level FlightAware ADS-B
Tue 05:54:12 PM 26.2627 -82.1818 188° South 417 480 39,000  Level FlightAware ADS-B
Tue 05:54:53 PM 26.1852 -82.1934 188° South 417 480 39,000  Level FlightAware ADS-B
Tue 05:55:52 PM 26.0782 -82.2097 188° South 415 478 39,000  Level FlightAware ADS-B
Tue 05:57:30 PM 25.8885 -82.2384 188° South 416 479 39,000  Level FlightAware ADS-B
Tue 05:58:16 PM 25.7990 -82.2518 188° South 415 478 39,000  Level FlightAware ADS-B
Tue 05:59:10 PM 25.6963 -82.2672 188° South 415 478 39,000  Level FlightAware ADS-B
Tue 05:59:50 PM 25.6754 -82.2703 188° South 415 478 39,000  Level FlightAware ADS-B
Tue 06:01:56 PM 25.3790 -82.3150 188° South 417 480 39,000  Level FlightAware ADS-B
Tue 06:03:52 PM 25.1552 -82.3482 188° South 420 483 39,000 -68 Level FlightAware ADS-B
Tue 06:04:53 PM 25.0539 -82.3672 188° South 422 486 38,800 -595 Descending Miami Center
Tue 06:05:53 PM 24.9364 -82.3825 187° South 430 495 37,800 -1,450 Descending Miami Center
Tue 06:06:53 PM 24.8167 -82.4025 189° South 430 495 35,900 -2,000 Descending Miami Center
Tue 06:07:53 PM 24.6950 -82.4175 186° South 437 503 33,800 -2,050 Descending Miami Center
Tue 06:08:53 PM 24.5733 -82.4372 188° South 437 503 31,800 -2,100 Descending Miami Center
Tue 06:09:53 PM 24.4556 -82.4547 188° South 437 503 29,600 -2,050 Descending Miami Center
Tue 06:10:53 PM 24.3403 -82.4722 188° South 437 503 27,700 -1,950 Descending Miami Center
Tue 06:11:53 PM 24.2225 -82.4897 188° South 430 495 25,700 -1,950 Descending Miami Center
Tue 06:12:53 PM 24.1094 -82.5028 186° South 430 495 23,800 -1,750 Descending Miami Center
Tue 06:13:53 PM 23.9981 -82.5206 188° South 425 489 22,200 -1,150 Descending Miami Center
Tue 06:14:53 PM 23.8953 -82.5319 186° South 400 460 21,500 -1,750 Descending Miami Center
Tue 06:15:53 PM 23.7906 -82.5431 186° South 389 448 18,700 -2,800 Descending Miami Center
Tue 06:17:00 PM 23.6551 -82.5155 169° South  Level FlightAware Approximate
Tue 06:24:00 PM 22.9891 -82.4091 180° South  Level Estimated
Tue 06:25:00 PM 22.9891 -82.4091 180° South  Level Estimated
Tue 06:26:00 PM 22.9891 -82.4091 180° South  Level Estimated
Tue 06:27:00 PM 22.9891 -82.4091 180° South  Level Estimated
Tue 06:28:00 PM 22.9891 -82.4091 180° South  Level Estimated
Tue 06:29:00 PM 22.9891 -82.4091 180° South  Level Estimated
Tue 06:30:00 PM 22.9891 -82.4091 180° South  Level Estimated
Tue 06:31:00 PM 22.9891 -82.4091 180° South  Level Estimated
Tue 06:32:00 PM 22.9891 -82.4091 180° South  Level Estimated
Tue 06:33:00 PM 22.9891 -82.4091 180° South  Level Estimated
Tue 06:34:00 PM 22.9891 -82.4091 180° South  Level Estimated
Tue 06:35:00 PM 22.9891 -82.4091 180° South  Level Estimated
Tue 06:36:00 PM 22.9891 -82.4091 180° South  Level Estimated
Tue 06:37:00 PM 22.9891 -82.4091 180° South  Level Estimated
Tue 06:38:00 PM 22.9891 -82.4091 180° South  Level Estimated
Tue 06:39:00 PM 22.9891 -82.4091 180° South  Level Estimated
Tue 06:40:00 PM 22.9891 -82.4091 180° South  Level Estimated
Tue 06:41:00 PM 22.9891 -82.4091 180° South  Level Estimated
Tue 06:42:00 PM 22.9891 -82.4091 180° South  Level Estimated
Tue 06:43:00 PM 22.9891 -82.4091 180° South  Level Estimated

Login

Don't have an account? Register now (free) for customized features, flight alerts, and more!